createdAt,value
2018-11-25T00:00:01.704Z,0
2018-11-25T00:01:10.902Z,0
2018-11-25T00:02:19.833Z,0
2018-11-25T00:03:28.513Z,0
2018-11-25T00:04:37.190Z,0
2018-11-25T00:05:46.390Z,0
2018-11-25T00:06:55.066Z,0
2018-11-25T00:08:04.530Z,0
2018-11-25T00:09:13.439Z,0
2018-11-25T00:10:23.135Z,0
2018-11-25T00:11:31.830Z,0
2018-11-25T00:12:40.771Z,0
2018-11-25T00:13:49.459Z,0
2018-11-25T00:14:58.125Z,0
2018-11-25T00:16:06.810Z,0
2018-11-25T00:17:15.740Z,0
2018-11-25T00:18:24.659Z,0
2018-11-25T00:19:33.330Z,0
2018-11-25T00:20:42.269Z,0
2018-11-25T00:21:50.949Z,0
2018-11-25T00:22:59.641Z,0
2018-11-25T00:24:08.318Z,0
2018-11-25T00:25:17.348Z,0
2018-11-25T00:26:26.031Z,0
2018-11-25T00:27:34.717Z,0
2018-11-25T00:28:43.428Z,0
2018-11-25T00:29:52.104Z,0
2018-11-25T00:31:04.634Z,0
2018-11-25T00:32:18.143Z,0
2018-11-25T00:33:26.834Z,0
2018-11-25T00:34:35.513Z,0
2018-11-25T00:35:44.451Z,0
2018-11-25T00:36:53.118Z,0
2018-11-25T00:38:02.083Z,0
2018-11-25T00:39:11.010Z,0
2018-11-25T00:40:19.753Z,0
2018-11-25T00:41:28.682Z,0
2018-11-25T00:42:37.380Z,0
2018-11-25T00:43:46.062Z,0
2018-11-25T00:44:54.740Z,0
2018-11-25T00:46:03.409Z,0
2018-11-25T00:47:12.095Z,0
2018-11-25T00:48:21.040Z,0
2018-11-25T00:49:30.232Z,0
2018-11-25T00:50:39.165Z,0
2018-11-25T00:51:47.849Z,0
2018-11-25T00:52:56.525Z,0
2018-11-25T00:54:05.240Z,0
2018-11-25T00:55:13.927Z,0
2018-11-25T00:56:22.853Z,0
2018-11-25T00:57:31.526Z,0
2018-11-25T00:58:40.203Z,0
2018-11-25T00:59:48.890Z,0
2018-11-25T01:00:57.817Z,0
2018-11-25T01:02:06.761Z,0
2018-11-25T01:03:15.437Z,0
2018-11-25T01:04:24.120Z,0
2018-11-25T01:05:32.811Z,0
2018-11-25T01:06:41.741Z,0
2018-11-25T01:07:50.690Z,0
2018-11-25T01:08:59.616Z,0
2018-11-25T01:10:08.299Z,0
2018-11-25T01:11:16.974Z,0
2018-11-25T01:12:25.691Z,0
2018-11-25T01:13:34.620Z,0
2018-11-25T01:14:43.304Z,0
2018-11-25T01:15:52.233Z,0
2018-11-25T01:17:00.911Z,0
2018-11-25T01:18:09.595Z,0
2018-11-25T01:19:18.321Z,0
2018-11-25T01:20:27.265Z,0
2018-11-25T01:21:36.196Z,0
2018-11-25T01:22:45.126Z,0
2018-11-25T01:23:53.808Z,0
2018-11-25T01:25:03.001Z,0
2018-11-25T01:26:11.956Z,0
2018-11-25T01:27:20.886Z,0
2018-11-25T01:28:29.813Z,0
2018-11-25T01:29:38.746Z,0
2018-11-25T01:30:47.931Z,0
2018-11-25T01:31:56.613Z,0
2018-11-25T01:33:05.289Z,0
2018-11-25T01:34:13.979Z,0
2018-11-25T01:35:22.659Z,0
2018-11-25T01:36:31.600Z,0
2018-11-25T01:37:40.274Z,0
2018-11-25T01:38:48.959Z,0
2018-11-25T01:39:57.631Z,0
2018-11-25T01:41:06.316Z,0
2018-11-25T01:42:14.994Z,0
2018-11-25T01:43:23.689Z,0
2018-11-25T01:44:32.367Z,0
2018-11-25T01:45:41.039Z,0
2018-11-25T01:46:49.977Z,0
2018-11-25T01:47:58.663Z,0
2018-11-25T01:49:07.353Z,0
2018-11-25T01:50:16.276Z,0
2018-11-25T01:51:25.208Z,0
2018-11-25T01:52:34.141Z,0
2018-11-25T01:53:42.826Z,0
2018-11-25T01:54:51.768Z,0
2018-11-25T01:56:00.713Z,0
2018-11-25T01:57:09.393Z,0
2018-11-25T01:58:18.078Z,0
2018-11-25T01:59:26.750Z,0
2018-11-25T02:00:35.432Z,0
2018-11-25T02:01:44.109Z,0
2018-11-25T02:02:53.046Z,0
2018-11-25T02:04:01.731Z,0
2018-11-25T02:05:10.659Z,0
2018-11-25T02:06:19.338Z,0
2018-11-25T02:07:28.301Z,0
2018-11-25T02:08:36.988Z,0
2018-11-25T02:09:45.661Z,0
2018-11-25T02:10:54.343Z,0
2018-11-25T02:12:03.020Z,0
2018-11-25T02:13:11.957Z,0
2018-11-25T02:14:20.626Z,0
2018-11-25T02:15:29.303Z,0
2018-11-25T02:16:37.976Z,0
2018-11-25T02:17:46.918Z,0
2018-11-25T02:18:55.855Z,0
2018-11-25T02:20:04.785Z,0
2018-11-25T02:21:13.716Z,0
2018-11-25T02:22:22.391Z,0
2018-11-25T02:23:31.331Z,0
2018-11-25T02:24:40.292Z,0
2018-11-25T02:25:49.221Z,0
2018-11-25T02:26:57.906Z,0
2018-11-25T02:28:06.598Z,0
2018-11-25T02:29:15.537Z,0
2018-11-25T02:30:24.491Z,0
2018-11-25T02:31:33.426Z,0
2018-11-25T02:32:42.364Z,0
2018-11-25T02:33:51.305Z,0
2018-11-25T02:35:00.037Z,0
2018-11-25T02:36:08.965Z,0
2018-11-25T02:37:17.699Z,0
2018-11-25T02:38:26.380Z,0
2018-11-25T02:39:35.077Z,0
2018-11-25T02:40:44.011Z,0
2018-11-25T02:41:53.208Z,0
2018-11-25T02:43:02.409Z,0
2018-11-25T02:44:11.344Z,0
2018-11-25T02:45:20.038Z,0
2018-11-25T02:46:28.967Z,0
2018-11-25T02:47:37.650Z,0
2018-11-25T02:48:46.321Z,0
2018-11-25T02:49:55.517Z,0
2018-11-25T02:51:04.694Z,0
2018-11-25T02:52:13.378Z,0
2018-11-25T02:53:22.055Z,0
2018-11-25T02:54:30.747Z,0
2018-11-25T02:55:39.681Z,0
2018-11-25T02:56:48.358Z,0
2018-11-25T02:57:57.048Z,0
2018-11-25T02:59:05.728Z,0
2018-11-25T03:00:14.668Z,0
2018-11-25T03:01:23.861Z,0
2018-11-25T03:02:32.541Z,0
2018-11-25T03:03:41.213Z,0
2018-11-25T03:04:49.905Z,0
2018-11-25T03:05:58.582Z,0
2018-11-25T03:07:07.272Z,0
2018-11-25T03:08:15.943Z,0
2018-11-25T03:09:24.633Z,0
2018-11-25T03:10:33.860Z,0
2018-11-25T03:11:42.787Z,0
2018-11-25T03:12:51.464Z,0
2018-11-25T03:14:00.404Z,0
2018-11-25T03:15:09.607Z,0
2018-11-25T03:16:18.290Z,0
2018-11-25T03:17:26.973Z,0
2018-11-25T03:18:35.641Z,0
2018-11-25T03:19:44.598Z,0
2018-11-25T03:20:53.531Z,0
2018-11-25T03:22:02.226Z,0
2018-11-25T03:23:11.411Z,0
2018-11-25T03:24:20.094Z,0
2018-11-25T03:25:29.018Z,0
2018-11-25T03:26:37.998Z,0
2018-11-25T03:27:46.984Z,0
2018-11-25T03:28:56.070Z,0
2018-11-25T03:30:05.176Z,0
2018-11-25T03:31:14.699Z,0
2018-11-25T03:32:23.378Z,0
2018-11-25T03:33:32.050Z,0
2018-11-25T03:34:40.887Z,0
2018-11-25T03:35:50.073Z,0
2018-11-25T03:36:59.013Z,0
2018-11-25T03:38:07.944Z,0
2018-11-25T03:39:16.676Z,0
2018-11-25T03:40:25.375Z,0
2018-11-25T03:41:34.878Z,0
2018-11-25T03:42:43.553Z,0
2018-11-25T03:43:52.239Z,0
2018-11-25T03:45:00.921Z,0
2018-11-25T03:46:09.591Z,0
2018-11-25T03:47:18.268Z,0
2018-11-25T03:48:26.939Z,0
2018-11-25T03:49:35.881Z,0
2018-11-25T03:50:44.558Z,0
2018-11-25T03:51:53.229Z,0
2018-11-25T03:53:01.910Z,0
2018-11-25T03:54:10.840Z,0
2018-11-25T03:55:19.790Z,0
2018-11-25T03:56:28.465Z,0
2018-11-25T03:57:37.659Z,0
2018-11-25T03:58:46.328Z,0
2018-11-25T03:59:55.016Z,0
2018-11-25T04:01:03.941Z,0
2018-11-25T04:02:12.887Z,0
2018-11-25T04:03:21.824Z,0
2018-11-25T04:04:30.770Z,0
2018-11-25T04:05:39.450Z,0
2018-11-25T04:06:48.380Z,0
2018-11-25T04:07:57.578Z,0
2018-11-25T04:09:06.259Z,0
2018-11-25T04:10:15.217Z,0
2018-11-25T04:11:23.952Z,0
2018-11-25T04:12:32.632Z,0
2018-11-25T04:13:41.307Z,0
2018-11-25T04:14:49.995Z,0
2018-11-25T04:15:59.184Z,0
2018-11-25T04:17:07.867Z,0
2018-11-25T04:18:16.539Z,0
2018-11-25T04:19:25.472Z,0
2018-11-25T04:20:34.142Z,0
2018-11-25T04:21:42.831Z,0
2018-11-25T04:22:51.519Z,0
2018-11-25T04:24:00.204Z,0
2018-11-25T04:25:09.147Z,0
2018-11-25T04:26:18.093Z,0
2018-11-25T04:27:26.775Z,0
2018-11-25T04:28:35.768Z,0
2018-11-25T04:29:44.715Z,0
2018-11-25T04:30:53.390Z,0
2018-11-25T04:32:02.076Z,0
2018-11-25T04:33:11.007Z,0
2018-11-25T04:34:19.692Z,0
2018-11-25T04:35:28.626Z,0
2018-11-25T04:36:37.573Z,0
2018-11-25T04:37:46.251Z,0
2018-11-25T04:38:55.193Z,0
2018-11-25T04:40:03.865Z,0
2018-11-25T04:41:12.553Z,0
2018-11-25T04:42:21.229Z,0
2018-11-25T04:43:29.908Z,0
2018-11-25T04:44:38.842Z,0
2018-11-25T04:45:47.521Z,0
2018-11-25T04:46:56.461Z,0
2018-11-25T04:48:05.660Z,0
2018-11-25T04:49:14.342Z,0
2018-11-25T04:50:23.290Z,0
2018-11-25T04:51:31.974Z,0
2018-11-25T04:52:41.157Z,0
2018-11-25T04:53:50.195Z,0
2018-11-25T04:54:58.875Z,0
2018-11-25T04:56:07.897Z,0
2018-11-25T04:57:16.582Z,0
2018-11-25T04:58:25.284Z,0
2018-11-25T04:59:33.954Z,0
2018-11-25T05:00:42.632Z,0
2018-11-25T05:01:51.316Z,0
2018-11-25T05:03:00.001Z,0
2018-11-25T05:04:08.943Z,0
2018-11-25T05:05:17.899Z,0
2018-11-25T05:06:26.580Z,0
2018-11-25T05:07:35.262Z,0
2018-11-25T05:08:43.950Z,0
2018-11-25T05:09:52.897Z,0
2018-11-25T05:11:01.576Z,0
2018-11-25T05:12:10.512Z,0
2018-11-25T05:13:19.194Z,0
2018-11-25T05:14:27.883Z,0
2018-11-25T05:15:36.810Z,0
2018-11-25T05:16:45.490Z,0
2018-11-25T05:17:54.434Z,0
2018-11-25T05:19:03.114Z,0
2018-11-25T05:20:12.052Z,0
2018-11-25T05:21:20.979Z,0
2018-11-25T05:22:29.918Z,0
2018-11-25T05:23:38.600Z,0
2018-11-25T05:24:47.335Z,0
2018-11-25T05:25:56.010Z,0
2018-11-25T05:27:04.686Z,0
2018-11-25T05:28:13.380Z,0
2018-11-25T05:29:22.569Z,0
2018-11-25T05:30:31.506Z,0
2018-11-25T05:31:40.700Z,0
2018-11-25T05:32:49.380Z,0
2018-11-25T05:33:58.571Z,0
2018-11-25T05:35:07.255Z,0
2018-11-25T05:36:16.174Z,0
2018-11-25T05:37:24.860Z,0
2018-11-25T05:38:33.535Z,0
2018-11-25T05:39:42.223Z,0
2018-11-25T05:40:50.898Z,0
2018-11-25T05:41:59.828Z,0
2018-11-25T05:43:08.507Z,0
2018-11-25T05:44:17.182Z,0
2018-11-25T05:45:26.118Z,0
2018-11-25T05:46:35.055Z,0
2018-11-25T05:47:43.726Z,0
2018-11-25T05:48:52.667Z,0
2018-11-25T05:50:01.343Z,0
2018-11-25T05:51:10.030Z,0
2018-11-25T05:52:18.963Z,0
2018-11-25T05:53:27.660Z,0
2018-11-25T05:54:36.325Z,0
2018-11-25T05:55:45.261Z,0
2018-11-25T05:56:53.937Z,0
2018-11-25T05:58:02.623Z,0
2018-11-25T05:59:11.298Z,0
2018-11-25T06:00:20.228Z,0
2018-11-25T06:01:29.166Z,0
2018-11-25T06:02:38.109Z,0
2018-11-25T06:03:47.060Z,0
2018-11-25T06:04:55.982Z,0
2018-11-25T06:06:04.917Z,0
2018-11-25T06:07:13.582Z,0
2018-11-25T06:08:22.280Z,0
2018-11-25T06:09:30.960Z,0
2018-11-25T06:10:39.900Z,0
2018-11-25T06:11:48.819Z,0
2018-11-25T06:12:57.503Z,0
2018-11-25T06:14:06.185Z,0
2018-11-25T06:15:15.128Z,0
2018-11-25T06:16:24.054Z,0
2018-11-25T06:17:32.736Z,0
2018-11-25T06:18:41.931Z,0
2018-11-25T06:19:51.140Z,0
2018-11-25T06:20:59.818Z,0
2018-11-25T06:22:08.487Z,0
2018-11-25T06:23:17.169Z,0
2018-11-25T06:24:25.856Z,0
2018-11-25T06:25:34.549Z,0
2018-11-25T06:26:43.222Z,0
2018-11-25T06:27:52.181Z,0
2018-11-25T06:29:01.110Z,0
2018-11-25T06:30:09.802Z,0
2018-11-25T06:31:18.722Z,0
2018-11-25T06:32:27.410Z,0
2018-11-25T06:33:36.347Z,0
2018-11-25T06:34:45.030Z,0
2018-11-25T06:35:53.711Z,0
2018-11-25T06:37:02.652Z,0
2018-11-25T06:38:11.347Z,0
2018-11-25T06:39:20.049Z,0
2018-11-25T06:40:28.741Z,0
2018-11-25T06:41:42.618Z,0
2018-11-25T06:42:51.807Z,0
2018-11-25T06:44:00.478Z,0
2018-11-25T06:45:09.159Z,0
2018-11-25T06:46:17.838Z,0
2018-11-25T06:47:26.717Z,0
2018-11-25T06:48:35.398Z,0
2018-11-25T06:49:44.091Z,0
2018-11-25T06:50:52.775Z,0
2018-11-25T06:52:01.460Z,0
2018-11-25T06:53:10.389Z,0
2018-11-25T06:54:19.339Z,0
2018-11-25T06:55:28.280Z,0
2018-11-25T06:56:37.465Z,0
2018-11-25T06:57:46.145Z,0
2018-11-25T06:58:54.820Z,0
2018-11-25T07:00:03.759Z,0
2018-11-25T07:01:12.438Z,0
2018-11-25T07:02:21.124Z,0
2018-11-25T07:03:29.799Z,0
2018-11-25T07:04:38.477Z,0
2018-11-25T07:05:47.155Z,0
2018-11-25T07:06:55.840Z,0
2018-11-25T07:08:04.809Z,0
2018-11-25T07:09:14.540Z,0
2018-11-25T07:10:23.490Z,0
2018-11-25T07:11:32.171Z,0
2018-11-25T07:12:40.876Z,0
2018-11-25T07:13:49.817Z,0
2018-11-25T07:14:58.754Z,0
2018-11-25T07:16:08.681Z,0
2018-11-25T07:17:17.623Z,0
2018-11-25T07:18:26.558Z,0
2018-11-25T07:19:35.491Z,0
2018-11-25T07:20:44.464Z,0
2018-11-25T07:21:53.168Z,0
2018-11-25T07:23:02.887Z,0
2018-11-25T07:24:11.565Z,0
2018-11-25T07:25:20.774Z,0
2018-11-25T07:26:29.462Z,0
2018-11-25T07:27:38.390Z,0
2018-11-25T07:28:47.072Z,5
2018-11-25T07:29:56.013Z,5
2018-11-25T07:31:04.690Z,5
2018-11-25T07:32:13.627Z,5
2018-11-25T07:33:22.306Z,0
2018-11-25T07:34:30.998Z,0
2018-11-25T07:35:39.674Z,5
2018-11-25T07:36:48.613Z,5
2018-11-25T07:37:58.053Z,5
2018-11-25T07:39:06.742Z,5
2018-11-25T07:40:15.679Z,5
2018-11-25T07:41:24.356Z,5
2018-11-25T07:42:33.032Z,5
2018-11-25T07:43:41.713Z,5
2018-11-25T07:44:50.391Z,5
2018-11-25T07:45:59.318Z,5
2018-11-25T07:47:08.274Z,5
2018-11-25T07:48:17.455Z,10
2018-11-25T07:49:26.388Z,10
2018-11-25T07:50:35.070Z,10
2018-11-25T07:51:43.750Z,15
2018-11-25T07:52:52.700Z,15
2018-11-25T07:54:01.629Z,15
2018-11-25T07:55:10.561Z,15
2018-11-25T07:56:19.238Z,15
2018-11-25T07:57:28.172Z,15
2018-11-25T07:58:37.138Z,15
2018-11-25T07:59:45.820Z,15
2018-11-25T08:00:54.503Z,15
2018-11-25T08:02:03.195Z,15
2018-11-25T08:03:11.871Z,15
2018-11-25T08:04:20.820Z,15
2018-11-25T08:05:29.507Z,15
2018-11-25T08:06:38.190Z,15
2018-11-25T08:07:47.139Z,15
2018-11-25T08:08:56.067Z,15
2018-11-25T08:10:04.995Z,15
2018-11-25T08:11:13.964Z,15
2018-11-25T08:12:22.905Z,15
2018-11-25T08:13:31.587Z,20
2018-11-25T08:14:40.283Z,15
2018-11-25T08:15:48.965Z,20
2018-11-25T08:16:57.650Z,20
2018-11-25T08:18:06.591Z,20
2018-11-25T08:19:15.531Z,20
2018-11-25T08:20:24.224Z,20
2018-11-25T08:21:32.908Z,25
2018-11-25T08:22:41.589Z,25
2018-11-25T08:23:50.526Z,25
2018-11-25T08:24:59.196Z,30
2018-11-25T08:26:07.942Z,30
2018-11-25T08:27:16.621Z,30
2018-11-25T08:28:25.959Z,30
2018-11-25T08:29:34.900Z,25
2018-11-25T08:30:43.836Z,25
2018-11-25T08:31:52.527Z,25
2018-11-25T08:33:01.475Z,25
2018-11-25T08:34:10.477Z,20
2018-11-25T08:35:19.168Z,25
2018-11-25T08:36:27.848Z,25
2018-11-25T08:37:36.784Z,25
2018-11-25T08:38:45.737Z,25
2018-11-25T08:39:54.411Z,30
2018-11-25T08:41:03.096Z,30
2018-11-25T08:42:11.785Z,30
2018-11-25T08:43:20.488Z,30
2018-11-25T08:44:29.160Z,35
2018-11-25T08:45:37.838Z,35
2018-11-25T08:46:46.514Z,35
2018-11-25T08:47:55.200Z,30
2018-11-25T08:49:03.890Z,35
2018-11-25T08:50:12.566Z,35
2018-11-25T08:51:21.253Z,35
2018-11-25T08:52:29.921Z,35
2018-11-25T08:53:38.610Z,40
2018-11-25T08:54:47.285Z,40
2018-11-25T08:55:55.963Z,40
2018-11-25T08:57:04.884Z,40
2018-11-25T08:58:13.826Z,35
2018-11-25T08:59:22.506Z,35
2018-11-25T09:00:31.882Z,40
2018-11-25T09:01:40.811Z,35
2018-11-25T09:02:49.491Z,35
2018-11-25T09:03:58.439Z,35
2018-11-25T09:05:07.375Z,35
2018-11-25T09:06:16.578Z,35
2018-11-25T09:07:25.497Z,35
2018-11-25T09:08:34.181Z,40
2018-11-25T09:09:42.874Z,40
2018-11-25T09:10:51.827Z,40
2018-11-25T09:12:00.494Z,35
2018-11-25T09:13:09.183Z,35
2018-11-25T09:14:17.857Z,35
2018-11-25T09:15:27.058Z,35
2018-11-25T09:16:35.729Z,35
2018-11-25T09:17:44.423Z,35
2018-11-25T09:18:53.095Z,40
2018-11-25T09:20:01.797Z,40
2018-11-25T09:21:10.738Z,45
2018-11-25T09:22:19.413Z,40
2018-11-25T09:23:28.094Z,35
2018-11-25T09:24:36.773Z,35
2018-11-25T09:25:45.729Z,35
2018-11-25T09:26:54.661Z,35
2018-11-25T09:28:03.874Z,35
2018-11-25T09:29:13.050Z,30
2018-11-25T09:30:21.741Z,30
2018-11-25T09:31:30.921Z,30
2018-11-25T09:32:39.608Z,30
2018-11-25T09:33:48.281Z,30
2018-11-25T09:34:56.968Z,30
2018-11-25T09:36:05.641Z,30
2018-11-25T09:37:14.578Z,35
2018-11-25T09:38:23.249Z,35
2018-11-25T09:39:32.192Z,35
2018-11-25T09:40:40.874Z,35
2018-11-25T09:41:49.556Z,35
2018-11-25T09:42:58.243Z,35
2018-11-25T09:44:06.929Z,35
2018-11-25T09:45:16.125Z,40
2018-11-25T09:46:24.806Z,40
2018-11-25T09:47:33.491Z,40
2018-11-25T09:48:42.415Z,40
2018-11-25T09:49:51.102Z,45
2018-11-25T09:51:00.042Z,45
2018-11-25T09:52:08.983Z,45
2018-11-25T09:53:17.662Z,45
2018-11-25T09:54:26.352Z,45
2018-11-25T09:55:36.085Z,45
2018-11-25T09:56:45.289Z,45
2018-11-25T09:57:54.230Z,45
2018-11-25T09:59:03.215Z,45
2018-11-25T10:00:11.899Z,45
2018-11-25T10:01:20.579Z,50
2018-11-25T10:02:29.263Z,50
2018-11-25T10:03:37.941Z,50
2018-11-25T10:04:46.633Z,50
2018-11-25T10:05:55.310Z,50
2018-11-25T10:07:04.249Z,50
2018-11-25T10:08:13.204Z,50
2018-11-25T10:09:21.888Z,50
2018-11-25T10:10:30.570Z,50
2018-11-25T10:11:39.256Z,50
2018-11-25T10:12:48.483Z,50
2018-11-25T10:13:57.169Z,50
2018-11-25T10:15:05.848Z,50
2018-11-25T10:16:14.527Z,50
2018-11-25T10:17:23.213Z,50
2018-11-25T10:18:31.895Z,55
2018-11-25T10:19:40.580Z,55
2018-11-25T10:20:49.501Z,55
2018-11-25T10:21:58.177Z,55
2018-11-25T10:23:07.388Z,55
2018-11-25T10:24:16.340Z,55
2018-11-25T10:25:25.020Z,55
2018-11-25T10:26:33.958Z,60
2018-11-25T10:27:42.646Z,65
2018-11-25T10:28:51.333Z,65
2018-11-25T10:30:00.027Z,60
2018-11-25T10:31:08.730Z,65
2018-11-25T10:32:17.412Z,60
2018-11-25T10:33:26.357Z,55
2018-11-25T10:34:35.035Z,55
2018-11-25T10:35:43.762Z,50
2018-11-25T10:36:52.435Z,55
2018-11-25T10:38:01.629Z,55
2018-11-25T10:39:10.317Z,50
2018-11-25T10:40:19.259Z,55
2018-11-25T10:41:28.202Z,55
2018-11-25T10:42:36.873Z,50
2018-11-25T10:43:45.555Z,50
2018-11-25T10:44:54.484Z,50
2018-11-25T10:46:03.181Z,50
2018-11-25T10:47:11.863Z,50
2018-11-25T10:48:20.547Z,50
2018-11-25T10:49:29.235Z,55
2018-11-25T10:50:38.196Z,50
2018-11-25T10:51:47.122Z,50
2018-11-25T10:52:55.802Z,50
2018-11-25T10:54:04.755Z,45
2018-11-25T10:55:13.706Z,40
2018-11-25T10:56:23.524Z,45
2018-11-25T10:57:32.199Z,50
2018-11-25T10:58:40.888Z,50
2018-11-25T10:59:49.562Z,45
2018-11-25T11:00:58.253Z,45
2018-11-25T11:02:06.925Z,55
2018-11-25T11:03:16.117Z,55
2018-11-25T11:04:24.792Z,55
2018-11-25T11:05:33.486Z,50
2018-11-25T11:06:42.406Z,50
2018-11-25T11:07:51.090Z,45
2018-11-25T11:08:59.771Z,45
2018-11-25T11:10:08.976Z,45
2018-11-25T11:11:17.648Z,45
2018-11-25T11:12:26.320Z,45
2018-11-25T11:13:35.262Z,40
2018-11-25T11:14:43.939Z,45
2018-11-25T11:15:53.130Z,40
2018-11-25T11:17:02.898Z,40
2018-11-25T11:18:11.835Z,45
2018-11-25T11:19:20.504Z,45
2018-11-25T11:20:29.217Z,45
2018-11-25T11:21:37.898Z,45
2018-11-25T11:22:46.579Z,45
2018-11-25T11:23:55.256Z,45
2018-11-25T11:25:04.216Z,45
2018-11-25T11:26:15.735Z,45
2018-11-25T11:27:25.015Z,45
2018-11-25T11:28:34.005Z,45
2018-11-25T11:29:43.190Z,40
2018-11-25T11:30:51.872Z,40
2018-11-25T11:32:00.562Z,40
2018-11-25T11:33:09.751Z,40
2018-11-25T11:34:18.424Z,35
2018-11-25T11:35:27.117Z,35
2018-11-25T11:36:36.056Z,35
2018-11-25T11:37:44.730Z,35
2018-11-25T11:38:53.668Z,35
2018-11-25T11:40:02.348Z,35
2018-11-25T11:41:11.292Z,35
2018-11-25T11:42:19.961Z,40
2018-11-25T11:43:28.654Z,40
2018-11-25T11:44:37.588Z,35
2018-11-25T11:45:46.811Z,35
2018-11-25T11:46:55.733Z,40
2018-11-25T11:48:04.671Z,40
2018-11-25T11:49:13.358Z,40
2018-11-25T11:50:22.553Z,40
2018-11-25T11:51:34.654Z,40
2018-11-25T11:52:43.335Z,35
2018-11-25T11:53:52.268Z,35
2018-11-25T11:55:00.952Z,40
2018-11-25T11:56:09.909Z,35
2018-11-25T11:57:18.580Z,35
2018-11-25T11:58:27.522Z,35
2018-11-25T11:59:36.194Z,35
2018-11-25T12:00:44.888Z,40
2018-11-25T12:01:54.068Z,35
2018-11-25T12:03:03.015Z,35
2018-11-25T12:04:11.699Z,35
2018-11-25T12:05:20.905Z,35
2018-11-25T12:06:29.598Z,35
2018-11-25T12:07:38.332Z,35
2018-11-25T12:08:47.015Z,30
2018-11-25T12:09:55.942Z,30
2018-11-25T12:11:04.630Z,30
2018-11-25T12:12:13.557Z,30
2018-11-25T12:13:22.498Z,30
2018-11-25T12:14:31.182Z,30
2018-11-25T12:15:40.133Z,30
2018-11-25T12:16:48.819Z,30
2018-11-25T12:17:58.020Z,30
2018-11-25T12:19:06.745Z,30
2018-11-25T12:20:15.438Z,30
2018-11-25T12:21:24.119Z,30
2018-11-25T12:22:33.051Z,30
2018-11-25T12:23:41.990Z,30
2018-11-25T12:24:50.675Z,30
2018-11-25T12:25:59.361Z,30
2018-11-25T12:27:08.043Z,30
2018-11-25T12:28:16.727Z,30
2018-11-25T12:29:26.157Z,25
2018-11-25T12:30:34.857Z,25
2018-11-25T12:31:43.537Z,25
2018-11-25T12:32:52.488Z,25
2018-11-25T12:34:01.419Z,25
2018-11-25T12:35:10.621Z,25
2018-11-25T12:36:19.310Z,25
2018-11-25T12:37:29.240Z,25
2018-11-25T12:38:37.967Z,25
2018-11-25T12:39:46.651Z,25
2018-11-25T12:40:55.582Z,25
2018-11-25T12:42:04.523Z,25
2018-11-25T12:43:13.204Z,25
2018-11-25T12:44:23.229Z,25
2018-11-25T12:45:37.906Z,25
2018-11-25T12:46:46.831Z,25
2018-11-25T12:47:55.793Z,25
2018-11-25T12:49:04.478Z,25
2018-11-25T12:50:13.416Z,25
2018-11-25T12:51:22.092Z,30
2018-11-25T12:52:30.777Z,30
2018-11-25T12:53:39.717Z,30
2018-11-25T12:54:48.398Z,30
2018-11-25T12:55:57.076Z,30
2018-11-25T12:57:05.764Z,30
2018-11-25T12:58:14.445Z,30
2018-11-25T12:59:23.124Z,30
2018-11-25T13:00:31.811Z,30
2018-11-25T13:01:40.750Z,30
2018-11-25T13:02:49.430Z,30
2018-11-25T13:03:58.360Z,30
2018-11-25T13:05:07.040Z,30
2018-11-25T13:06:15.713Z,30
2018-11-25T13:07:24.396Z,30
2018-11-25T13:08:33.076Z,25
2018-11-25T13:09:41.769Z,25
2018-11-25T13:10:50.720Z,25
2018-11-25T13:12:01.142Z,25
2018-11-25T13:13:09.821Z,25
2018-11-25T13:14:18.764Z,25
2018-11-25T13:15:27.701Z,25
2018-11-25T13:16:36.389Z,25
2018-11-25T13:17:45.072Z,25
2018-11-25T13:18:53.764Z,25
2018-11-25T13:20:02.447Z,25
2018-11-25T13:21:11.127Z,25
2018-11-25T13:22:19.808Z,25
2018-11-25T13:23:28.745Z,25
2018-11-25T13:24:37.438Z,25
2018-11-25T13:25:46.116Z,25
2018-11-25T13:26:54.805Z,25
2018-11-25T13:28:03.995Z,20
2018-11-25T13:29:12.934Z,20
2018-11-25T13:30:22.524Z,20
2018-11-25T13:31:31.455Z,20
2018-11-25T13:32:40.380Z,25
2018-11-25T13:33:49.311Z,20
2018-11-25T13:34:57.985Z,20
2018-11-25T13:36:06.677Z,25
2018-11-25T13:37:15.358Z,25
2018-11-25T13:38:24.093Z,20
2018-11-25T13:39:33.280Z,20
2018-11-25T13:40:41.961Z,20
2018-11-25T13:41:50.892Z,20
2018-11-25T13:42:59.570Z,20
2018-11-25T13:44:08.508Z,20
2018-11-25T13:45:17.201Z,20
2018-11-25T13:46:26.392Z,20
2018-11-25T13:47:35.087Z,20
2018-11-25T13:48:44.288Z,20
2018-11-25T13:49:53.228Z,20
2018-11-25T13:51:01.913Z,20
2018-11-25T13:52:10.848Z,15
2018-11-25T13:53:19.538Z,20
2018-11-25T13:54:28.218Z,20
2018-11-25T13:55:37.170Z,20
2018-11-25T13:56:45.852Z,20
2018-11-25T13:57:54.555Z,20
2018-11-25T13:59:03.238Z,20
2018-11-25T14:00:12.172Z,20
2018-11-25T14:01:20.865Z,20
2018-11-25T14:02:29.545Z,20
2018-11-25T14:03:38.230Z,15
2018-11-25T14:04:47.415Z,15
2018-11-25T14:06:02.037Z,20
2018-11-25T14:07:10.726Z,20
2018-11-25T14:08:19.664Z,15
2018-11-25T14:09:28.341Z,15
2018-11-25T14:10:37.031Z,15
2018-11-25T14:11:45.974Z,10
2018-11-25T14:12:54.958Z,10
2018-11-25T14:14:03.903Z,10
2018-11-25T14:15:12.833Z,10
2018-11-25T14:16:21.521Z,10
2018-11-25T14:17:30.208Z,10
2018-11-25T14:18:38.901Z,10
2018-11-25T14:19:47.581Z,10
2018-11-25T14:20:56.260Z,10
2018-11-25T14:22:04.951Z,5
2018-11-25T14:23:13.900Z,5
2018-11-25T14:24:22.583Z,5
2018-11-25T14:25:31.784Z,5
2018-11-25T14:26:40.476Z,5
2018-11-25T14:27:49.673Z,5
2018-11-25T14:28:58.356Z,5
2018-11-25T14:30:15.592Z,5
2018-11-25T14:31:24.523Z,5
2018-11-25T14:32:33.212Z,5
2018-11-25T14:33:41.889Z,5
2018-11-25T14:34:50.825Z,5
2018-11-25T14:35:59.792Z,5
2018-11-25T14:37:08.968Z,5
2018-11-25T14:38:17.663Z,5
2018-11-25T14:39:26.594Z,5
2018-11-25T14:40:35.279Z,5
2018-11-25T14:41:44.209Z,5
2018-11-25T14:42:53.162Z,5
2018-11-25T14:44:02.089Z,5
2018-11-25T14:45:10.784Z,0
2018-11-25T14:46:19.459Z,5
2018-11-25T14:47:28.155Z,5
2018-11-25T14:48:36.840Z,0
2018-11-25T14:49:45.516Z,5
2018-11-25T14:50:54.452Z,5
2018-11-25T14:52:03.143Z,0
2018-11-25T14:53:12.081Z,0
2018-11-25T14:54:20.773Z,0
2018-11-25T14:55:29.451Z,0
2018-11-25T14:56:38.373Z,0
2018-11-25T14:57:47.316Z,0
2018-11-25T14:58:55.993Z,0
2018-11-25T15:00:04.682Z,0
2018-11-25T15:01:13.611Z,0
2018-11-25T15:02:22.549Z,0
2018-11-25T15:03:31.228Z,0
2018-11-25T15:04:45.134Z,0
2018-11-25T15:05:54.067Z,0
2018-11-25T15:07:02.800Z,0
2018-11-25T15:08:11.762Z,0
2018-11-25T15:09:20.701Z,0
2018-11-25T15:10:29.376Z,0
2018-11-25T15:11:38.049Z,0
2018-11-25T15:12:46.732Z,0
2018-11-25T15:13:55.412Z,0
2018-11-25T15:15:04.104Z,0
2018-11-25T15:16:12.779Z,0
2018-11-25T15:17:21.483Z,0
2018-11-25T15:18:30.170Z,0
2018-11-25T15:19:39.365Z,0
2018-11-25T15:20:48.038Z,0
2018-11-25T15:21:57.988Z,0
2018-11-25T15:23:06.673Z,0
2018-11-25T15:24:15.362Z,0
2018-11-25T15:25:24.042Z,0
2018-11-25T15:26:32.723Z,0
2018-11-25T15:27:41.664Z,0
2018-11-25T15:28:50.875Z,0
2018-11-25T15:29:59.563Z,0
2018-11-25T15:31:08.752Z,0
2018-11-25T15:32:17.774Z,0
2018-11-25T15:33:26.508Z,0
2018-11-25T15:34:35.201Z,0
2018-11-25T15:35:43.898Z,0
2018-11-25T15:36:52.848Z,0
2018-11-25T15:38:02.090Z,0
2018-11-25T15:39:10.788Z,0
2018-11-25T15:40:19.548Z,0
2018-11-25T15:41:28.472Z,0
2018-11-25T15:42:37.161Z,0
2018-11-25T15:43:46.091Z,0
2018-11-25T15:44:54.772Z,0
2018-11-25T15:46:03.950Z,0
2018-11-25T15:47:16.872Z,0
2018-11-25T15:48:26.866Z,0
2018-11-25T15:49:35.675Z,0
2018-11-25T15:50:44.872Z,0
2018-11-25T15:51:55.179Z,0
2018-11-25T15:53:03.971Z,0
2018-11-25T15:54:12.669Z,0
2018-11-25T15:55:21.385Z,0
2018-11-25T15:56:30.350Z,0
2018-11-25T15:57:39.551Z,0
2018-11-25T15:58:48.523Z,0
2018-11-25T15:59:57.493Z,0
2018-11-25T16:01:06.234Z,0
2018-11-25T16:02:15.207Z,0
2018-11-25T16:03:24.436Z,0
2018-11-25T16:04:33.746Z,0
2018-11-25T16:05:42.480Z,0
2018-11-25T16:06:51.227Z,0
2018-11-25T16:07:59.932Z,0
2018-11-25T16:09:08.902Z,0
2018-11-25T16:10:17.654Z,0
2018-11-25T16:11:26.338Z,0
2018-11-25T16:12:35.052Z,0
2018-11-25T16:13:44.270Z,0
2018-11-25T16:14:53.320Z,0
2018-11-25T16:16:02.293Z,0
2018-11-25T16:17:11.583Z,0
2018-11-25T16:18:20.786Z,0
2018-11-25T16:19:29.826Z,0
2018-11-25T16:20:38.517Z,0
2018-11-25T16:21:47.194Z,0
2018-11-25T16:22:56.129Z,0
2018-11-25T16:24:04.813Z,0
2018-11-25T16:25:13.750Z,0
2018-11-25T16:26:22.436Z,0
2018-11-25T16:27:31.116Z,0
2018-11-25T16:28:40.038Z,0
2018-11-25T16:29:48.981Z,0
2018-11-25T16:30:57.663Z,0
2018-11-25T16:32:06.367Z,0
2018-11-25T16:33:15.044Z,0
2018-11-25T16:34:23.726Z,0
2018-11-25T16:35:32.408Z,0
2018-11-25T16:36:41.145Z,0
2018-11-25T16:37:49.825Z,0
2018-11-25T16:38:58.515Z,0
2018-11-25T16:40:07.187Z,0
2018-11-25T16:41:15.869Z,0
2018-11-25T16:42:24.552Z,0
2018-11-25T16:43:33.738Z,0